Airfield :
LOGIN :

Register | Disclaimer

   EN    FR    IT 

 










Legend :    VFR   Marginal VFR   IFR   Intensive IFR   Very Intensive IFR
Visi :
Ceiling :
>= 8 km
>= 3000ft
5 to 8 km
1000 to 3000 ft
1500m to 5 km
500 to 1000 ft
800 to 1500m
200 to 500 ft
< 800m
< 200 ft
Symbols :   Thunderstorms  Fog  Heavy snow  Heavy precipitations  Wind > 20 kt
SIGMETs :     Misc.  Thunderstorms  Icing  Turbulence  Mountain Waves  Volcanic Ashes







- Airport Elevation : 3368 ft


LSGC - Les Eplatures

CURRENT METAR :
  • 111950Z AUTO 06001KT 0300 FZFG VV001 M10/M11 Q1020

EXPIRED METARs :
  • 111920Z AUTO 00000KT CAVOK M07/M08 Q1020 REFZDZ
  • 111850Z AUTO 00000KT 2700 BR NCD M09/M10 Q1020 REFZDZ
  • 111820Z AUTO VRB01KT 3000 NCD M07/M08 Q1020
  • 111750Z AUTO VRB01KT 9999 SCT004 SCT021 M06/M07 Q1020
  • 111720Z AUTO VRB01KT 9999 FEW006 OVC021 M06/M07 Q1020

TAF TAF LSGC
Valid from the 11 at 15:00 until the 12 at 00:00 UTC


111425Z 1115/1124 VRB02KT 9999 FEW010 BKN020
No reported NOTAMs for that airfield.



MET'MAP, your aeronautical weather chart ! - Copyright ORBIFLY December 2007 - Disclaimer

ORBIFLY MET'MAP TEAM :

Programming & Development : Alexandra Zaïnal
Concept & Development : Baudouin d'Aumeries
Co-Development & Prog : Marc-Olivier Méhu
Technical & hardware support : Manuel Goepfert

Contact : metmap@orbifly.com




SOURCES & CREDITS :

   NOAA